createdAt,value
2023-05-02T00:00:57.207Z,99442.39
2023-05-02T00:01:57.312Z,99438.2
2023-05-02T00:02:57.706Z,99435.41
2023-05-02T00:03:57.335Z,99438.53
2023-05-02T00:04:57.315Z,99438.11
2023-05-02T00:05:57.273Z,99437.47
2023-05-02T00:06:57.901Z,99433.91
2023-05-02T00:07:57.892Z,99434.69
2023-05-02T00:08:57.912Z,99434.72
2023-05-02T00:09:58.390Z,99437.12
2023-05-02T00:10:57.767Z,99434.55
2023-05-02T00:11:57.809Z,99437.53
2023-05-02T00:12:58.068Z,99442.89
2023-05-02T00:13:57.799Z,99439.92
2023-05-02T00:14:58.096Z,99435.5
2023-05-02T00:15:57.860Z,99439.25
2023-05-02T00:16:57.867Z,99432.01
2023-05-02T00:17:57.894Z,99437
2023-05-02T00:18:57.979Z,99435.85
2023-05-02T00:19:58.252Z,99435.27
2023-05-02T00:20:57.955Z,99435.45
2023-05-02T00:21:57.896Z,99439.8
2023-05-02T00:22:57.980Z,99434.67
2023-05-02T00:23:58.333Z,99438.89
2023-05-02T00:24:58.364Z,99440.38
2023-05-02T00:25:58.062Z,99435.86
2023-05-02T00:26:58.011Z,99434.34
2023-05-02T00:27:58.061Z,99438.24
2023-05-02T00:28:57.985Z,99433.22
2023-05-02T00:29:58.413Z,99433.89
2023-05-02T00:30:58.129Z,99434.08
2023-05-02T00:31:58.083Z,99433.48
2023-05-02T00:32:58.155Z,99432.7
2023-05-02T00:33:58.061Z,99429.34
2023-05-02T00:34:58.188Z,99434.87
2023-05-02T00:35:58.131Z,99430.09
2023-05-02T00:36:58.316Z,99427.64
2023-05-02T00:37:59.231Z,99434.34
2023-05-02T00:38:58.136Z,99433.23
2023-05-02T00:39:58.531Z,99428.29
2023-05-02T00:40:58.195Z,99426.72
2023-05-02T00:41:58.748Z,99429.09
2023-05-02T00:42:58.174Z,99424.67
2023-05-02T00:43:58.452Z,99425.81
2023-05-02T00:44:58.290Z,99423.73
2023-05-02T00:45:58.315Z,99423.19
2023-05-02T00:46:59.992Z,99418.02
2023-05-02T00:47:58.510Z,99420.54
2023-05-02T00:48:58.510Z,99420.25
2023-05-02T00:49:58.578Z,99422.09
2023-05-02T00:50:58.499Z,99418.54
2023-05-02T00:51:58.380Z,99420.14
2023-05-02T00:53:00.341Z,99414.99
2023-05-02T00:53:58.928Z,99415.3
2023-05-02T00:54:58.378Z,99408.35
2023-05-02T00:55:58.848Z,99411.31
2023-05-02T00:56:58.420Z,99410.47
2023-05-02T00:57:58.617Z,99413.74
2023-05-02T00:58:59.336Z,99409.67
2023-05-02T00:59:58.757Z,99410.28
2023-05-02T01:01:04.133Z,99410.67
2023-05-02T01:03:12.598Z,99405.53
2023-05-02T01:05:27.898Z,99405.59
2023-05-02T01:08:25.471Z,99402.91
2023-05-02T01:11:35.118Z,99396.81
2023-05-02T01:13:33.288Z,99392.33
2023-05-02T01:14:40.951Z,99395.84
2023-05-02T01:15:33.304Z,99393.11
2023-05-02T01:16:33.762Z,99385.8
2023-05-02T01:17:33.073Z,99386.27
2023-05-02T01:18:35.150Z,99385.22
2023-05-02T01:19:35.266Z,99389.67
2023-05-02T01:20:36.298Z,99390.35
2023-05-02T01:21:33.411Z,99390.82
2023-05-02T01:22:33.618Z,99390.63
2023-05-02T01:24:38.775Z,99388.93
2023-05-02T01:26:50.830Z,99389.81
2023-05-02T01:29:49.746Z,99385.86
2023-05-02T01:30:47.710Z,99382.47
2023-05-02T01:31:49.394Z,99387.22
2023-05-02T01:32:48.257Z,99385.75
2023-05-02T01:33:47.938Z,99385.12
2023-05-02T01:34:47.025Z,99383.2
2023-05-02T01:35:49.577Z,99385.85
2023-05-02T01:36:48.569Z,99384.42
2023-05-02T01:37:47.282Z,99388.83
2023-05-02T01:38:47.310Z,99383.83
2023-05-02T01:39:48.265Z,99373.36
2023-05-02T01:40:47.487Z,99376.7
2023-05-02T01:41:49.020Z,99371.91
2023-05-02T01:42:50.776Z,99373.08
2023-05-02T01:43:47.471Z,99369.27
2023-05-02T01:44:48.036Z,99370.52
2023-05-02T01:45:48.827Z,99372.9
2023-05-02T01:46:47.980Z,99368.94
2023-05-02T01:47:47.500Z,99372.28
2023-05-02T01:48:48.523Z,99371.97
2023-05-02T01:49:47.325Z,99361.64
2023-05-02T01:50:47.853Z,99369.01
2023-05-02T01:51:48.592Z,99375.17
2023-05-02T01:52:48.719Z,99373.91
2023-05-02T01:53:48.234Z,99372.47
2023-05-02T01:54:47.855Z,99367.44
2023-05-02T01:55:48.904Z,99361.72
2023-05-02T01:56:47.871Z,99357.47
2023-05-02T01:57:48.389Z,99359.11
2023-05-02T01:58:47.684Z,99366.48
2023-05-02T01:59:48.777Z,99362.98
2023-05-02T02:00:47.599Z,99361.2
2023-05-02T02:01:48.290Z,99363.55
2023-05-02T02:02:48.595Z,99357.47
2023-05-02T02:03:47.593Z,99357.14
2023-05-02T02:04:48.945Z,99359.06
2023-05-02T02:05:49.042Z,99358.08
2023-05-02T02:06:50.695Z,99359.92
2023-05-02T02:07:47.672Z,99360.22
2023-05-02T02:08:47.470Z,99358.61
2023-05-02T02:09:47.695Z,99356.19
2023-05-02T02:10:50.673Z,99355.44
2023-05-02T02:11:52.358Z,99354.77
2023-05-02T02:12:53.480Z,99350.91
2023-05-02T02:13:52.918Z,99348.58
2023-05-02T02:14:57.117Z,99349.28
2023-05-02T02:15:57.608Z,99348.38
2023-05-02T02:16:56.126Z,99351.91
2023-05-02T02:18:56.476Z,99349.86
2023-05-02T02:19:57.371Z,99344.88
2023-05-02T02:20:58.642Z,99346.92
2023-05-02T02:21:58.103Z,99343.41
2023-05-02T02:22:57.591Z,99344.22
2023-05-02T02:23:57.249Z,99344.82
2023-05-02T02:24:57.176Z,99341.11
2023-05-02T02:25:56.818Z,99340.14
2023-05-02T02:26:56.653Z,99339.15
2023-05-02T02:27:57.017Z,99337
2023-05-02T02:28:56.428Z,99342.8
2023-05-02T02:29:56.501Z,99337.99
2023-05-02T02:30:56.702Z,99338.03
2023-05-02T02:31:56.726Z,99339.4
2023-05-02T02:32:57.574Z,99337.58
2023-05-02T02:33:57.297Z,99338.12
2023-05-02T02:34:57.236Z,99337.56
2023-05-02T02:36:07.033Z,99337.39
2023-05-02T02:37:05.180Z,99339.69
2023-05-02T02:41:18.276Z,99341.12
2023-05-02T02:46:33.106Z,99345.42
2023-05-02T02:47:29.233Z,99335.25
2023-05-02T02:48:32.822Z,99340.02
2023-05-02T02:49:41.782Z,99340.74
2023-05-02T02:50:37.997Z,99325.68
2023-05-02T02:53:54.683Z,99335.52
2023-05-02T02:54:46.964Z,99332.08
2023-05-02T02:55:55.497Z,99335.33
2023-05-02T02:56:48.780Z,99338.61
2023-05-02T02:58:00.529Z,99335.23
2023-05-02T02:58:58.008Z,99331.12
2023-05-02T02:59:54.970Z,99332.84
2023-05-02T03:00:58.498Z,99329.44
2023-05-02T03:01:59.858Z,99330.54
2023-05-02T03:02:57.395Z,99330.59
2023-05-02T03:03:57.233Z,99332.12
2023-05-02T03:04:57.372Z,99321.3
2023-05-02T03:05:56.952Z,99326.47
2023-05-02T03:06:56.960Z,99318.25
2023-05-02T03:07:58.796Z,99317.58
2023-05-02T03:08:56.979Z,99318.36
2023-05-02T03:09:56.974Z,99316
2023-05-02T03:10:56.903Z,99315.5
2023-05-02T03:11:56.818Z,99316.23
2023-05-02T03:12:56.907Z,99319.81
2023-05-02T03:13:57.017Z,99315.22
2023-05-02T03:15:04.895Z,99314.23
2023-05-02T03:17:05.140Z,99316.95
2023-05-02T03:18:04.419Z,99317.3
2023-05-02T03:19:05.226Z,99312.98
2023-05-02T03:20:05.564Z,99314.95
2023-05-02T03:21:04.835Z,99308.8
2023-05-02T03:22:05.299Z,99311.06
2023-05-02T03:23:04.916Z,99311.45
2023-05-02T03:24:05.340Z,99309.02
2023-05-02T03:25:05.372Z,99314.73
2023-05-02T03:26:05.507Z,99308.46
2023-05-02T03:27:04.950Z,99311.72
2023-05-02T03:28:05.573Z,99307.4
2023-05-02T03:29:04.958Z,99305.83
2023-05-02T03:30:05.828Z,99310.98
2023-05-02T03:31:05.230Z,99306.77
2023-05-02T03:32:05.128Z,99303.44
2023-05-02T03:33:05.192Z,99308
2023-05-02T03:34:05.065Z,99299.78
2023-05-02T03:35:05.635Z,99306.56
2023-05-02T03:36:05.638Z,99304.44
2023-05-02T03:37:05.116Z,99302.58
2023-05-02T03:38:05.379Z,99298.95
2023-05-02T03:39:05.156Z,99305.8
2023-05-02T03:40:05.984Z,99299.86
2023-05-02T03:41:05.740Z,99302.35
2023-05-02T03:42:05.394Z,99302.6
2023-05-02T03:43:05.214Z,99304.27
2023-05-02T03:44:05.448Z,99307.69
2023-05-02T03:45:08.387Z,99301.47
2023-05-02T03:46:06.031Z,99307.87
2023-05-02T03:47:05.329Z,99301.84
2023-05-02T03:48:05.373Z,99303.92
2023-05-02T03:49:05.282Z,99306.33
2023-05-02T03:50:05.997Z,99301.09
2023-05-02T03:51:06.259Z,99302.66
2023-05-02T03:52:05.354Z,99303.06
2023-05-02T03:53:05.382Z,99308.38
2023-05-02T03:54:05.390Z,99307.5
2023-05-02T03:55:07.142Z,99306.04
2023-05-02T03:56:05.927Z,99303.02
2023-05-02T03:57:05.451Z,99300.72
2023-05-02T03:58:05.464Z,99299.64
2023-05-02T03:59:05.447Z,99297
2023-05-02T04:00:06.384Z,99299.71
2023-05-02T04:01:13.282Z,99302.25
2023-05-02T04:02:09.552Z,99299.44
2023-05-02T04:03:09.526Z,99291.48
2023-05-02T04:04:09.566Z,99295.83
2023-05-02T04:05:09.520Z,99292.75
2023-05-02T04:06:09.606Z,99293.41
2023-05-02T04:07:09.607Z,99290.49
2023-05-02T04:08:09.605Z,99293.66
2023-05-02T04:09:09.600Z,99288.17
2023-05-02T04:10:10.191Z,99290.44
2023-05-02T04:11:09.627Z,99295.11
2023-05-02T04:12:09.693Z,99289.09
2023-05-02T04:13:09.686Z,99287.85
2023-05-02T04:14:09.913Z,99286.6
2023-05-02T04:15:12.471Z,99290.78
2023-05-02T04:16:09.736Z,99289.61
2023-05-02T04:17:10.088Z,99286.75
2023-05-02T04:18:09.831Z,99278.11
2023-05-02T04:19:09.774Z,99282.05
2023-05-02T04:20:10.995Z,99283.33
2023-05-02T04:21:09.817Z,99286.59
2023-05-02T04:22:09.858Z,99282.7
2023-05-02T04:23:10.092Z,99278.61
2023-05-02T04:24:10.109Z,99277.09
2023-05-02T04:25:09.869Z,99278.77
2023-05-02T04:26:09.889Z,99276.33
2023-05-02T04:27:09.924Z,99272.05
2023-05-02T04:28:09.937Z,99275.98
2023-05-02T04:29:09.920Z,99273.43
2023-05-02T04:30:10.531Z,99267.32
2023-05-02T04:31:10.853Z,99273.88
2023-05-02T04:32:10.011Z,99267.34
2023-05-02T04:33:10.093Z,99266.97
2023-05-02T04:34:10.026Z,99263.52
2023-05-02T04:35:10.039Z,99265.98
2023-05-02T04:36:10.041Z,99262.48
2023-05-02T04:37:10.056Z,99259.8
2023-05-02T04:38:10.106Z,99257.94
2023-05-02T04:39:10.082Z,99260.2
2023-05-02T04:40:10.810Z,99255.64
2023-05-02T04:41:10.306Z,99260.28
2023-05-02T04:42:10.152Z,99257.39
2023-05-02T04:43:10.221Z,99263.44
2023-05-02T04:44:10.173Z,99253.07
2023-05-02T04:45:10.766Z,99252.84
2023-05-02T04:46:10.458Z,99249.33
2023-05-02T04:47:10.204Z,99252.03
2023-05-02T04:48:10.291Z,99254.19
2023-05-02T04:49:10.254Z,99245.34
2023-05-02T04:50:10.273Z,99247.98
2023-05-02T04:51:10.693Z,99245.02
2023-05-02T04:52:10.304Z,99240.41
2023-05-02T04:53:10.341Z,99246.94
2023-05-02T04:54:10.330Z,99236.73
2023-05-02T04:55:10.349Z,99239.19
2023-05-02T04:56:10.333Z,99241.47
2023-05-02T04:57:10.384Z,99246.96
2023-05-02T04:58:10.615Z,99242.77
2023-05-02T04:59:10.418Z,99242.02
2023-05-02T05:00:11.030Z,99242.56
2023-05-02T05:01:10.738Z,99234.45
2023-05-02T05:02:10.563Z,99238.8
2023-05-02T05:03:10.592Z,99242.27
2023-05-02T05:04:11.030Z,99235.45
2023-05-02T05:05:10.577Z,99229.77
2023-05-02T05:06:10.606Z,99236.41
2023-05-02T05:07:10.575Z,99238.86
2023-05-02T05:08:10.616Z,99232.29
2023-05-02T05:09:10.658Z,99231.97
2023-05-02T05:10:10.900Z,99231.23
2023-05-02T05:11:10.808Z,99237.09
2023-05-02T05:12:10.649Z,99233.8
2023-05-02T05:13:10.653Z,99230.73
2023-05-02T05:14:10.932Z,99230.59
2023-05-02T05:15:11.106Z,99228.34
2023-05-02T05:16:10.732Z,99230.78
2023-05-02T05:17:10.722Z,99232.02
2023-05-02T05:18:10.756Z,99226.75
2023-05-02T05:19:10.807Z,99224.86
2023-05-02T05:20:10.918Z,99219.81
2023-05-02T05:21:10.841Z,99223.05
2023-05-02T05:22:10.827Z,99230.67
2023-05-02T05:23:10.820Z,99213.77
2023-05-02T05:24:10.874Z,99220.23
2023-05-02T05:25:11.438Z,99217.03
2023-05-02T05:26:15.131Z,99217.84
2023-05-02T05:27:11.357Z,99209.48
2023-05-02T05:28:11.541Z,99208.44
2023-05-02T05:29:11.422Z,99210.5
2023-05-02T05:30:11.864Z,99219.69
2023-05-02T05:31:14.006Z,99209.69
2023-05-02T05:32:11.728Z,99211.78
2023-05-02T05:33:11.771Z,99203.11
2023-05-02T05:34:11.736Z,99211.43
2023-05-02T05:35:11.782Z,99205.25
2023-05-02T05:36:12.781Z,99204.87
2023-05-02T05:37:11.721Z,99205.72
2023-05-02T05:38:11.748Z,99206.7
2023-05-02T05:39:11.807Z,99202.54
2023-05-02T05:40:12.219Z,99196.05
2023-05-02T05:41:11.783Z,99193.95
2023-05-02T05:42:11.810Z,99196.48
2023-05-02T05:43:11.838Z,99192.3
2023-05-02T05:44:11.848Z,99195.45
2023-05-02T05:45:12.282Z,99190.97
2023-05-02T05:46:11.860Z,99191.45
2023-05-02T05:47:11.907Z,99185.41
2023-05-02T05:48:11.985Z,99186.72
2023-05-02T05:49:11.932Z,99192.12
2023-05-02T05:50:11.948Z,99189.08
2023-05-02T05:51:11.955Z,99186
2023-05-02T05:52:11.956Z,99194.34
2023-05-02T05:53:12.489Z,99191.34
2023-05-02T05:54:12.024Z,99193.57
2023-05-02T05:55:12.539Z,99194.54
2023-05-02T05:56:12.806Z,99188.05
2023-05-02T05:57:12.064Z,99196.88
2023-05-02T05:58:12.330Z,99187.28
2023-05-02T05:59:12.156Z,99188.61
2023-05-02T06:00:12.560Z,99185.71
2023-05-02T06:01:12.094Z,99181.58
2023-05-02T06:02:12.158Z,99185.61
2023-05-02T06:03:12.369Z,99187.16
2023-05-02T06:04:12.403Z,99179.19
2023-05-02T06:05:12.436Z,99181.06
2023-05-02T06:06:12.215Z,99186.3
2023-05-02T06:07:12.406Z,99183.66
2023-05-02T06:08:12.249Z,99185.22
2023-05-02T06:09:12.211Z,99181.2
2023-05-02T06:10:12.293Z,99181.92
2023-05-02T06:11:12.590Z,99185.47
2023-05-02T06:12:12.256Z,99181.55
2023-05-02T06:13:12.320Z,99187.94
2023-05-02T06:14:12.579Z,99186.08
2023-05-02T06:15:12.343Z,99184.05
2023-05-02T06:16:12.549Z,99193
2023-05-02T06:17:12.357Z,99187.94
2023-05-02T06:18:12.472Z,99177.03
2023-05-02T06:19:12.379Z,99179.73
2023-05-02T06:20:12.641Z,99173.96
2023-05-02T06:21:12.859Z,99174.72
2023-05-02T06:22:12.726Z,99163.19
2023-05-02T06:23:12.481Z,99170.03
2023-05-02T06:24:12.481Z,99166.71
2023-05-02T06:25:12.507Z,99174.09
2023-05-02T06:26:12.533Z,99169.92
2023-05-02T06:27:12.662Z,99162.56
2023-05-02T06:28:12.551Z,99161.38
2023-05-02T06:29:13.395Z,99167.26
2023-05-02T06:30:13.117Z,99152.8
2023-05-02T06:31:12.614Z,99157.69
2023-05-02T06:32:12.628Z,99151.53
2023-05-02T06:33:12.685Z,99155.83
2023-05-02T06:34:12.635Z,99153.67
2023-05-02T06:35:12.659Z,99152.12
2023-05-02T06:36:12.696Z,99152.3
2023-05-02T06:37:13.060Z,99147.99
2023-05-02T06:38:12.665Z,99150.22
2023-05-02T06:39:12.715Z,99154.15
2023-05-02T06:40:13.230Z,99149.41
2023-05-02T06:41:13.959Z,99147.96
2023-05-02T06:42:12.780Z,99156.4
2023-05-02T06:43:13.084Z,99131.19
2023-05-02T06:44:12.800Z,99157.95
2023-05-02T06:45:12.816Z,99161.93
2023-05-02T06:46:12.820Z,99147.65
2023-05-02T06:47:13.042Z,99148.2
2023-05-02T06:48:12.908Z,99147.14
2023-05-02T06:49:12.880Z,99149.08
2023-05-02T06:50:12.911Z,99142
2023-05-02T06:51:14.148Z,99140.2
2023-05-02T06:52:13.013Z,99143.96
2023-05-02T06:53:12.984Z,99139.34
2023-05-02T06:54:13.152Z,99133.63
2023-05-02T06:55:12.978Z,99131.27
2023-05-02T06:56:13.097Z,99131.91
2023-05-02T06:57:13.246Z,99136.36
2023-05-02T06:58:13.082Z,99129.51
2023-05-02T06:59:13.073Z,99132.47
2023-05-02T07:00:13.891Z,99127.05
2023-05-02T07:01:13.173Z,99136.08
2023-05-02T07:02:13.129Z,99133.73
2023-05-02T07:03:13.259Z,99129.61
2023-05-02T07:04:13.193Z,99127.9
2023-05-02T07:05:13.616Z,99125.03
2023-05-02T07:06:13.192Z,99127.83
2023-05-02T07:07:13.401Z,99132.2
2023-05-02T07:08:13.188Z,99131.96
2023-05-02T07:09:13.227Z,99129.34
2023-05-02T07:10:13.273Z,99134.28
2023-05-02T07:11:13.272Z,99125.07
2023-05-02T07:12:13.306Z,99140.97
2023-05-02T07:13:13.252Z,99130.62
2023-05-02T07:14:13.516Z,99123.33
2023-05-02T07:15:13.317Z,99137.84
2023-05-02T07:16:13.373Z,99130.8
2023-05-02T07:17:13.390Z,99137.3
2023-05-02T07:18:13.414Z,99123.86
2023-05-02T07:19:13.395Z,99131.17
2023-05-02T07:20:13.403Z,99137.02
2023-05-02T07:21:13.413Z,99134.2
2023-05-02T07:22:13.463Z,99132.5
2023-05-02T07:23:13.499Z,99127.24
2023-05-02T07:24:13.461Z,99130.92
2023-05-02T07:25:13.489Z,99132.55
2023-05-02T07:26:13.509Z,99135.36
2023-05-02T07:27:13.520Z,99130.23
2023-05-02T07:28:13.761Z,99128.44
2023-05-02T07:29:13.554Z,99130.73
2023-05-02T07:30:13.596Z,99127.94
2023-05-02T07:31:13.578Z,99134.03
2023-05-02T07:32:13.684Z,99133.66
2023-05-02T07:33:14.905Z,99128.8
2023-05-02T07:34:13.612Z,99128.88
2023-05-02T07:35:13.677Z,99120.09
2023-05-02T07:36:13.683Z,99124.66
2023-05-02T07:37:13.688Z,99122.7
2023-05-02T07:38:13.764Z,99122.2
2023-05-02T07:39:13.729Z,99120.35
2023-05-02T07:40:14.184Z,99121.8
2023-05-02T07:41:13.968Z,99123.34
2023-05-02T07:42:13.811Z,99120.84
2023-05-02T07:43:14.202Z,99107.55
2023-05-02T07:44:13.797Z,99119
2023-05-02T07:45:13.825Z,99108.66
2023-05-02T07:46:13.843Z,99111.77
2023-05-02T07:47:13.849Z,99110.23
2023-05-02T07:48:13.890Z,99108.92
2023-05-02T07:49:13.891Z,99105.61
2023-05-02T07:50:13.930Z,99108.11
2023-05-02T07:51:13.900Z,99111.22
2023-05-02T07:52:13.955Z,99107.95
2023-05-02T07:53:13.941Z,99108.22
2023-05-02T07:54:20.563Z,99112.3
2023-05-02T07:55:16.801Z,99106.95
2023-05-02T07:56:16.816Z,99098.97
2023-05-02T07:57:17.088Z,99106.07
2023-05-02T07:58:16.823Z,99098.84
2023-05-02T07:59:16.860Z,99092.14
2023-05-02T08:00:17.395Z,99099.23
2023-05-02T08:01:17.131Z,99095.45
2023-05-02T08:02:16.954Z,99106.48
2023-05-02T08:03:17.076Z,99103.44
2023-05-02T08:04:17.202Z,99099.64
2023-05-02T08:05:17.041Z,99102.92
2023-05-02T08:06:17.058Z,99095.36
2023-05-02T08:07:16.966Z,99102.36
2023-05-02T08:08:16.988Z,99098.15
2023-05-02T08:09:16.981Z,99082.95
2023-05-02T08:10:17.270Z,99094.62
2023-05-02T08:11:17.062Z,99094.69
2023-05-02T08:12:17.048Z,99095.56
2023-05-02T08:13:17.462Z,99097.95
2023-05-02T08:14:17.195Z,99092.39
2023-05-02T08:15:17.492Z,99084.42
2023-05-02T08:16:17.223Z,99088.9
2023-05-02T08:17:17.120Z,99084.91
2023-05-02T08:18:17.170Z,99091.27
2023-05-02T08:19:17.389Z,99085.43
2023-05-02T08:20:17.228Z,99092.22
2023-05-02T08:21:17.349Z,99090.16
2023-05-02T08:22:17.164Z,99078.18
2023-05-02T08:23:17.209Z,99082.95
2023-05-02T08:24:17.246Z,99088.27
2023-05-02T08:25:17.273Z,99071.52
2023-05-02T08:26:17.256Z,99082.12
2023-05-02T08:27:17.282Z,99087.97
2023-05-02T08:28:17.291Z,99082.78
2023-05-02T08:29:17.292Z,99071.59
2023-05-02T08:30:17.443Z,99080.8
2023-05-02T08:31:17.502Z,99074.3
2023-05-02T08:32:17.394Z,99082.25
2023-05-02T08:33:17.481Z,99071.29
2023-05-02T08:34:17.361Z,99068.63
2023-05-02T08:35:17.360Z,99070.46
2023-05-02T08:36:17.978Z,99067.91
2023-05-02T08:37:17.892Z,99064.09
2023-05-02T08:38:17.916Z,99060.2
2023-05-02T08:39:17.928Z,99067.75
2023-05-02T08:40:27.094Z,99073.15
2023-05-02T08:41:20.626Z,99054.16
2023-05-02T08:42:21.227Z,99051.76
2023-05-02T08:43:20.758Z,99058.39
2023-05-02T08:44:20.522Z,99071.56
2023-05-02T08:45:22.375Z,99062.14
2023-05-02T08:46:22.640Z,99057.98
2023-05-02T08:47:22.227Z,99060.91
2023-05-02T08:48:21.254Z,99061.04
2023-05-02T08:49:22.399Z,99053.67
2023-05-02T08:50:21.351Z,99054.2
2023-05-02T08:51:22.827Z,99052.55
2023-05-02T08:52:21.954Z,99049.96
2023-05-02T08:53:21.334Z,99059.78
2023-05-02T08:54:21.740Z,99054.92
2023-05-02T08:55:21.747Z,99056.7
2023-05-02T08:56:21.209Z,99050
2023-05-02T08:57:21.235Z,99036.52
2023-05-02T08:58:21.624Z,99048.31
2023-05-02T08:59:21.682Z,99049.3
2023-05-02T09:00:21.429Z,99047.53
2023-05-02T09:01:23.312Z,99035.89
2023-05-02T09:02:34.953Z,99042.86
2023-05-02T09:03:31.751Z,99048.9
2023-05-02T09:04:24.205Z,99032.89
2023-05-02T09:05:24.452Z,99041.1
2023-05-02T09:06:23.640Z,99035.7
2023-05-02T09:07:24.121Z,99030.55
2023-05-02T09:08:24.520Z,99028.76
2023-05-02T09:09:24.484Z,99017.91
2023-05-02T09:10:25.351Z,99019.08
2023-05-02T09:11:24.294Z,99020.44
2023-05-02T09:12:24.955Z,99013.19
2023-05-02T09:14:26.317Z,99015.24
2023-05-02T09:15:25.989Z,99012.73
2023-05-02T09:16:26.278Z,99010.12
2023-05-02T09:17:26.273Z,99010.73
2023-05-02T09:18:29.804Z,99003.94
2023-05-02T09:19:27.126Z,98999.98
2023-05-02T09:20:26.229Z,99001.47
2023-05-02T09:21:27.046Z,98993.31
2023-05-02T09:22:26.128Z,99017.31
2023-05-02T09:23:32.904Z,99012.39
2023-05-02T09:24:29.343Z,99002.52
2023-05-02T09:25:36.105Z,99001.06
2023-05-02T09:26:32.439Z,99001.32
2023-05-02T09:29:35.036Z,99004.09
2023-05-02T09:30:35.039Z,98997.5
2023-05-02T09:31:54.056Z,98991.42
2023-05-02T09:33:38.703Z,99005.6
2023-05-02T09:34:37.824Z,99004.12
2023-05-02T09:36:40.977Z,98995.54
2023-05-02T09:37:40.366Z,98988.42
2023-05-02T09:38:40.938Z,98989.74
2023-05-02T09:39:40.429Z,98991.12
2023-05-02T09:40:53.279Z,98985.25
2023-05-02T09:41:46.229Z,98973.49
2023-05-02T09:42:44.996Z,98988.81
2023-05-02T09:43:54.448Z,98981.77
2023-05-02T09:44:46.178Z,98993.55
2023-05-02T09:45:56.245Z,98985.27
2023-05-02T09:46:49.300Z,98983.62
2023-05-02T09:47:48.319Z,98983.61
2023-05-02T09:49:52.547Z,98981.3
2023-05-02T09:50:52.548Z,98986.48
2023-05-02T09:53:02.577Z,98983.89
2023-05-02T09:53:59.289Z,98987.39
2023-05-02T09:54:59.452Z,98996.05
2023-05-02T09:56:02.747Z,98983.28
2023-05-02T09:56:59.387Z,98991.45
2023-05-02T09:58:00.041Z,98986.02
2023-05-02T10:00:01.710Z,98979.3
2023-05-02T10:01:02.373Z,98976.94
2023-05-02T10:02:05.618Z,98971.55
2023-05-02T10:03:04.167Z,98980.78
2023-05-02T10:04:04.189Z,98976.93
2023-05-02T10:05:03.425Z,98977.89
2023-05-02T10:06:02.808Z,98972.8
2023-05-02T10:07:03.362Z,98974.58
2023-05-02T10:08:03.711Z,98975.52
2023-05-02T10:09:02.426Z,98970.77
2023-05-02T10:10:02.668Z,98970.44
2023-05-02T10:11:04.381Z,98972.95
2023-05-02T10:12:03.089Z,98977.45
2023-05-02T10:13:03.426Z,98969.08
2023-05-02T10:14:02.744Z,98978.92
2023-05-02T10:15:03.716Z,98959.34
2023-05-02T10:16:03.756Z,98938.83
2023-05-02T10:17:08.118Z,98953.95
2023-05-02T10:18:08.561Z,98961.02
2023-05-02T10:19:09.646Z,98955.61
2023-05-02T10:20:07.195Z,98954.83
2023-05-02T10:21:08.905Z,98958.78
2023-05-02T10:22:07.106Z,98954.97
2023-05-02T10:23:06.599Z,98965.42
2023-05-02T10:24:06.604Z,98948.28
2023-05-02T10:25:06.897Z,98951.55
2023-05-02T10:26:06.593Z,98930.05
2023-05-02T10:27:06.653Z,98944.88
2023-05-02T10:28:06.827Z,98956.34
2023-05-02T10:29:06.697Z,98937.45
2023-05-02T10:30:08.130Z,98956.05
2023-05-02T10:31:09.551Z,98939.42
2023-05-02T10:32:07.898Z,98933.19
2023-05-02T10:33:07.278Z,98933.34
2023-05-02T10:34:07.765Z,98938.2
2023-05-02T10:35:07.585Z,98941.8
2023-05-02T10:36:08.418Z,98938.06
2023-05-02T10:37:07.244Z,98934.74
2023-05-02T10:38:07.398Z,98928.4
2023-05-02T10:39:07.391Z,98930.52
2023-05-02T10:40:11.240Z,98925.8
2023-05-02T10:41:15.986Z,98926.62
2023-05-02T10:42:13.382Z,98931.7
2023-05-02T10:43:15.603Z,98932.98
2023-05-02T10:44:12.708Z,98924.95
2023-05-02T10:47:21.755Z,98926.93
2023-05-02T10:48:22.047Z,98922.66
2023-05-02T10:49:20.493Z,98920.74
2023-05-02T10:50:20.880Z,98926.77
2023-05-02T10:51:27.775Z,98930.95
2023-05-02T10:53:36.166Z,98935.11
2023-05-02T10:54:27.405Z,98924.17
2023-05-02T10:55:27.440Z,98918.61
2023-05-02T10:56:29.164Z,98927.44
2023-05-02T10:57:27.474Z,98916.8
2023-05-02T10:58:27.474Z,98915.95
2023-05-02T10:59:28.790Z,98920.49
2023-05-02T11:00:31.676Z,98932.28
2023-05-02T11:01:36.941Z,98921.8
2023-05-02T11:06:37.195Z,98917.89
2023-05-02T11:07:36.455Z,98911.39
2023-05-02T11:08:35.853Z,98913.98
2023-05-02T11:09:35.712Z,98916.1
2023-05-02T11:10:35.880Z,98921.88
2023-05-02T11:12:43.303Z,98922.7
2023-05-02T11:13:49.623Z,98908.73
2023-05-02T11:14:44.578Z,98914.47
2023-05-02T11:20:46.908Z,98904.56
2023-05-02T11:21:46.912Z,98917.4
2023-05-02T11:22:46.906Z,98913.47
2023-05-02T11:23:46.901Z,98910.51
2023-05-02T11:24:47.803Z,98906.71
2023-05-02T11:25:48.066Z,98909.48
2023-05-02T11:26:46.976Z,98904.09
2023-05-02T11:27:46.956Z,98910.12
2023-05-02T11:28:46.949Z,98904.84
2023-05-02T11:30:49.285Z,98898.78
2023-05-02T11:31:55.358Z,98900.53
2023-05-02T11:34:55.836Z,98905.08
2023-05-02T11:35:56.039Z,98906.66
2023-05-02T11:36:55.860Z,98910.41
2023-05-02T11:39:00.588Z,98902.97
2023-05-02T11:41:04.140Z,98912.88
2023-05-02T11:42:03.884Z,98906.58
2023-05-02T11:44:08.076Z,98909.23
2023-05-02T11:45:08.463Z,98905.23
2023-05-02T11:46:08.884Z,98912.24
2023-05-02T11:47:09.000Z,98901.45
2023-05-02T11:48:08.773Z,98908.72
2023-05-02T11:49:09.772Z,98895.18
2023-05-02T11:50:08.932Z,98902.94
2023-05-02T11:51:08.283Z,98898.26
2023-05-02T11:52:08.194Z,98898.7
2023-05-02T11:53:11.918Z,98893.73
2023-05-02T11:54:08.411Z,98893.17
2023-05-02T11:55:11.678Z,98889.31
2023-05-02T11:56:08.245Z,98886.72
2023-05-02T11:57:08.223Z,98891.67
2023-05-02T11:58:12.312Z,98884.1
2023-05-02T11:59:08.741Z,98890.78
2023-05-02T12:00:09.111Z,98895.61
2023-05-02T12:01:12.368Z,98900.98
2023-05-02T12:02:08.634Z,98905.3
2023-05-02T12:03:08.660Z,98904.1
2023-05-02T12:04:08.861Z,98906.42
2023-05-02T12:05:10.078Z,98917.27
2023-05-02T12:06:16.386Z,98912.17
2023-05-02T12:07:12.929Z,98921.52
2023-05-02T12:09:14.742Z,98923.3
2023-05-02T12:10:14.421Z,98929.28
2023-05-02T12:11:14.847Z,98941.97
2023-05-02T12:12:14.186Z,98944.75
2023-05-02T12:13:14.238Z,98948.31
2023-05-02T12:14:14.290Z,98940.34
2023-05-02T12:15:14.286Z,98947.92
2023-05-02T12:16:14.513Z,98946.27
2023-05-02T12:17:14.474Z,98943.06
2023-05-02T12:18:14.654Z,98945.33
2023-05-02T12:19:14.271Z,98937.73
2023-05-02T12:20:14.872Z,98947.98
2023-05-02T12:21:14.363Z,98947.91
2023-05-02T12:22:15.075Z,98958.73
2023-05-02T12:23:14.385Z,98974.93
2023-05-02T12:24:14.929Z,98972.66
2023-05-02T12:25:14.407Z,98977.22
2023-05-02T12:26:21.177Z,98973.23
2023-05-02T12:27:17.397Z,98978.15
2023-05-02T12:28:18.489Z,98974.79
2023-05-02T12:29:17.448Z,98969.31
2023-05-02T12:31:18.763Z,98976.08
2023-05-02T12:33:19.647Z,98971.34
2023-05-02T12:35:22.221Z,98974.86
2023-05-02T12:36:22.081Z,98976.83
2023-05-02T12:37:22.887Z,98972.45
2023-05-02T12:38:22.083Z,98974.86
2023-05-02T12:39:33.931Z,98975.01
2023-05-02T12:40:25.641Z,98980.26
2023-05-02T12:41:35.977Z,98972.16
2023-05-02T12:42:28.046Z,98974.11
2023-05-02T12:45:32.109Z,98974.47
2023-05-02T12:46:32.355Z,98973
2023-05-02T12:47:44.152Z,98958.72